Time;durP1;ratioP1;P1;durP2;ratioP2;P2;SDS_P1;SDS_P2;PMS_P1;PMS_P2;Temp;Humidity;BMP_temperature;BMP_pressure;BME280_temperature;BME280_humidity;BME280_pressure;Samples;Min_cycle;Max_cycle;Signal;HPM_P1;HPM_P2
2022/06/08 00:01:03;;;;;;;;;;;;;;;22.00;60.38;98996.47;4486915;31;20003;-86
2022/06/08 00:03:32;;;;;;;;;;;;;;;22.10;60.40;98996.53;4485961;31;27069;-86
2022/06/08 00:05:58;;;;;;;;;;;;;;;22.16;60.39;98991.47;4486386;31;20336;-87
2022/06/08 00:08:23;;;;;;;;;;;;;;;22.13;60.39;99001.53;4486090;31;20032;-88
2022/06/08 00:10:48;;;;;;;;;;;;;;;21.90;60.38;99001.78;4473407;31;19977;-89
2022/06/08 00:13:13;;;;;;;;;;;;;;;21.88;60.38;98993.13;4486469;31;20340;-89
2022/06/08 00:15:39;;;;;;;;;;;;;;;21.95;60.38;98994.25;4473084;31;25415;-89
2022/06/08 00:18:05;;;;;;;;;;;;;;;22.02;60.38;99002.50;4473411;31;20016;-89
2022/06/08 00:20:30;;;;;;;;;;;;;;;22.00;60.38;98996.47;4486483;31;19976;-89
2022/06/08 00:22:55;;;;;;;;;;;;;;;21.78;60.38;98992.31;4500928;31;20007;-88
2022/06/08 00:25:21;;;;;;;;;;;;;;;21.77;60.37;98995.94;4489627;31;21256;-88
2022/06/08 00:27:46;;;;;;;;;;;;;;;21.89;60.38;98978.91;4502141;31;19984;-89
2022/06/08 00:30:11;;;;;;;;;;;;;;;21.81;60.38;98989.38;4516198;31;23065;-89
2022/06/08 00:32:37;;;;;;;;;;;;;;;21.78;60.36;98976.41;4516557;31;19976;-88
2022/06/08 00:35:02;;;;;;;;;;;;;;;21.70;60.36;98990.31;4501947;31;20014;-88
2022/06/08 00:37:28;;;;;;;;;;;;;;;21.71;60.37;98989.34;4501957;31;20000;-89
2022/06/08 00:39:53;;;;;;;;;;;;;;;21.65;60.37;98987.25;4516749;31;19991;-89
2022/06/08 00:42:18;;;;;;;;;;;;;;;21.49;60.35;98991.41;4501068;31;32014;-88
2022/06/08 00:44:44;;;;;;;;;;;;;;;21.62;60.37;98984.91;4502101;31;20052;-88
2022/06/08 00:47:10;;;;;;;;;;;;;;;21.67;60.36;98979.19;4488858;31;19976;-88
2022/06/08 00:49:37;;;;;;;;;;;;;;;21.73;60.37;98986.56;4501911;31;19998;-88
2022/06/08 00:52:03;;;;;;;;;;;;;;;21.70;60.36;98994.78;4501845;31;20007;-89
2022/06/08 00:54:33;;;;;;;;;;;;;;;21.61;60.36;99033.53;4488511;31;19991;-90
2022/06/08 00:56:59;;;;;;;;;;;;;;;21.81;60.37;99103.28;4501499;31;20340;-89
2022/06/08 00:59:24;;;;;;;;;;;;;;;21.92;60.37;99104.97;4516417;31;20055;-90
2022/06/08 01:01:49;;;;;;;;;;;;;;;22.04;60.39;99083.56;4489083;31;19988;-88
2022/06/08 01:04:16;;;;;;;;;;;;;;;22.01;60.38;99061.78;4503249;31;20018;-88
2022/06/08 01:06:42;;;;;;;;;;;;;;;21.80;60.37;99047.81;4505224;31;19959;-90
2022/06/08 01:09:10;;;;;;;;;;;;;;;21.63;60.37;99047.47;4516409;31;19979;-88
2022/06/08 01:11:40;;;;;;;;;;;;;;;21.37;60.35;99055.06;4488862;31;20011;-88
2022/06/08 01:14:06;;;;;;;;;;;;;;;20.97;60.33;99052.38;4501801;31;20000;-88
2022/06/08 01:16:31;;;;;;;;;;;;;;;20.96;60.33;99050.69;4488288;31;19980;-88
2022/06/08 01:18:57;;;;;;;;;;;;;;;21.07;60.33;99045.31;4501495;31;20325;-89
2022/06/08 01:21:22;;;;;;;;;;;;;;;21.10;60.34;99039.75;4501282;31;19990;-88
2022/06/08 01:23:47;;;;;;;;;;;;;;;21.18;60.34;99028.50;4501497;31;20290;-86
2022/06/08 01:26:31;;;;;;;;;;;;;;;21.02;60.33;99036.91;4515906;31;20313;-88
2022/06/08 01:29:17;;;;;;;;;;;;;;;21.06;60.33;99030.41;4501434;31;19995;-88
2022/06/08 01:31:51;;;;;;;;;;;;;;;21.20;60.34;99045.09;4515310;31;20103;-88
2022/06/08 01:34:35;;;;;;;;;;;;;;;20.93;60.32;99047.47;4515968;31;20391;-88
2022/06/08 01:37:09;;;;;;;;;;;;;;;21.07;60.33;99044.50;4503267;31;20002;-88
2022/06/08 01:39:35;;;;;;;;;;;;;;;21.16;60.33;99033.09;4518185;31;19963;-88
2022/06/08 01:42:03;;;;;;;;;;;;;;;21.03;60.33;99028.00;4503234;31;20017;-87
2022/06/08 01:45:28;;;;;;;;;;;;;;;20.75;60.32;99024.25;4503705;31;19987;-87
2022/06/08 01:47:55;;;;;;;;;;;;;;;20.65;60.31;99014.62;4517921;31;20443;-87
2022/06/08 01:50:24;;;;;;;;;;;;;;;20.53;60.29;99004.09;4509052;31;20357;-87
2022/06/08 01:52:59;;;;;;;;;;;;;;;20.33;60.29;99001.41;4503692;31;19987;-87
2022/06/08 01:55:25;;;;;;;;;;;;;;;20.22;60.28;99002.34;4503540;31;20494;-87
2022/06/08 01:58:04;;;;;;;;;;;;;;;20.15;60.28;99009.09;4503330;31;19994;-87
2022/06/08 02:00:36;;;;;;;;;;;;;;;20.02;60.28;99021.62;4490098;31;19976;-87
2022/06/08 02:03:13;;;;;;;;;;;;;;;19.94;60.28;99022.28;4490174;31;19999;-88
2022/06/08 02:05:57;;;;;;;;;;;;;;;19.93;60.27;99026.72;4518155;31;19975;-87
2022/06/08 02:08:41;;;;;;;;;;;;;;;20.19;60.28;99023.72;4517856;31;20368;-87
2022/06/08 02:11:09;;;;;;;;;;;;;;;20.18;60.29;99032.63;4503225;31;19998;-88
2022/06/08 02:13:51;;;;;;;;;;;;;;;20.16;60.29;99039.84;4517683;31;20006;-87
2022/06/08 02:16:18;;;;;;;;;;;;;;;20.24;60.29;99053.25;4503540;31;20383;-87
2022/06/08 02:18:45;;;;;;;;;;;;;;;20.24;60.29;99059.38;4503373;31;20058;-86
2022/06/08 02:21:29;;;;;;;;;;;;;;;20.29;60.29;99055.50;4490115;31;20083;-86
2022/06/08 02:23:55;;;;;;;;;;;;;;;20.21;60.29;99064.06;4503524;31;19979;-87
2022/06/08 02:26:22;;;;;;;;;;;;;;;20.18;60.29;99051.13;4503769;31;20005;-86
2022/06/08 02:28:52;;;;;;;;;;;;;;;20.22;60.28;99061.31;4503585;31;20374;-86
2022/06/08 02:31:22;;;;;;;;;;;;;;;20.31;60.28;99064.97;4503655;31;20014;-86
2022/06/08 02:36:37;;;;;;;;;;;;;;;19.92;60.27;99045.34;4505486;31;20006;-86
2022/06/08 02:39:05;;;;;;;;;;;;;;;20.03;60.27;99053.22;4503319;31;19986;-86
2022/06/08 02:41:30;;;;;;;;;;;;;;;19.73;60.27;99053.06;4503345;31;19989;-87
2022/06/08 02:43:58;;;;;;;;;;;;;;;19.84;60.26;99055.66;4502678;31;21925;-86
2022/06/08 02:46:23;;;;;;;;;;;;;;;19.86;60.27;99067.78;4503241;31;19995;-86
2022/06/08 02:48:48;;;;;;;;;;;;;;;19.75;60.26;99059.91;4502419;31;19967;-86
2022/06/08 02:51:13;;;;;;;;;;;;;;;19.71;60.26;99050.56;4517642;31;20037;-86
2022/06/08 02:53:44;;;;;;;;;;;;;;;19.82;60.26;99044.41;4517304;31;29646;-86
2022/06/08 02:56:20;;;;;;;;;;;;;;;19.75;60.25;99027.38;4518378;31;19984;-86
2022/06/08 02:58:49;;;;;;;;;;;;;;;19.46;60.25;99014.69;4511163;31;19978;-87
2022/06/08 03:01:35;;;;;;;;;;;;;;;19.43;60.24;99003.56;4497923;31;19976;-85
2022/06/08 03:04:03;;;;;;;;;;;;;;;19.31;60.24;99010.63;4517180;31;19968;-86
2022/06/08 03:06:31;;;;;;;;;;;;;;;19.11;60.22;99016.66;4517537;31;20032;-86
2022/06/08 03:08:57;;;;;;;;;;;;;;;19.22;60.23;99030.69;4503097;31;20473;-86
2022/06/08 03:11:26;;;;;;;;;;;;;;;19.24;60.24;99028.75;4489556;31;19995;-86
2022/06/08 03:13:53;;;;;;;;;;;;;;;19.19;60.23;99027.47;4502825;31;19992;-87
2022/06/08 03:16:31;;;;;;;;;;;;;;;19.15;60.23;99036.53;4502910;31;20040;-87
2022/06/08 03:18:57;;;;;;;;;;;;;;;19.11;60.23;99032.47;4489638;31;19976;-87
2022/06/08 03:21:22;;;;;;;;;;;;;;;18.99;60.21;99032.50;4502790;31;20005;-87
2022/06/08 03:23:49;;;;;;;;;;;;;;;18.97;60.21;99036.22;4502038;31;20028;-86
2022/06/08 03:26:14;;;;;;;;;;;;;;;18.98;60.21;99043.16;4489656;31;20000;-86
2022/06/08 03:28:40;;;;;;;;;;;;;;;19.20;60.23;99045.81;4502955;31;19998;-86
2022/06/08 03:31:05;;;;;;;;;;;;;;;19.09;60.23;99052.84;4516913;31;27633;-86
2022/06/08 03:33:30;;;;;;;;;;;;;;;19.23;60.24;99050.84;4502479;31;24906;-86
2022/06/08 03:35:55;;;;;;;;;;;;;;;19.45;60.24;99051.78;4489057;31;27215;-88
2022/06/08 03:38:20;;;;;;;;;;;;;;;19.53;60.25;99057.28;4489422;31;19984;-86
2022/06/08 03:40:46;;;;;;;;;;;;;;;19.44;60.24;99056.22;4502003;31;28411;-87
2022/06/08 03:43:11;;;;;;;;;;;;;;;19.48;60.24;99062.09;4516886;31;24379;-87
2022/06/08 03:45:39;;;;;;;;;;;;;;;19.61;60.25;99058.34;4517277;31;20248;-88
2022/06/08 03:48:05;;;;;;;;;;;;;;;19.47;60.25;99063.87;4489458;31;20023;-87
2022/06/08 03:50:30;;;;;;;;;;;;;;;19.30;60.23;99040.63;4502606;31;19994;-86
2022/06/08 03:52:58;;;;;;;;;;;;;;;19.32;60.24;99042.19;4502505;31;20271;-85
2022/06/08 03:55:23;;;;;;;;;;;;;;;19.22;60.23;99037.75;4502542;31;19987;-85
2022/06/08 03:57:49;;;;;;;;;;;;;;;19.36;60.23;99031.38;4502343;31;19968;-85
2022/06/08 04:00:14;;;;;;;;;;;;;;;19.39;60.24;99031.13;4501446;31;29652;-86
2022/06/08 04:02:39;;;;;;;;;;;;;;;19.32;60.24;99033.41;4502399;31;20359;-86
2022/06/08 04:05:05;;;;;;;;;;;;;;;19.31;60.24;99019.38;4501642;31;28014;-86
2022/06/08 04:07:30;;;;;;;;;;;;;;;19.44;60.24;99019.25;4502417;31;20027;-86
2022/06/08 04:09:55;;;;;;;;;;;;;;;19.32;60.24;99028.97;4501947;31;20040;-86
2022/06/08 04:12:22;;;;;;;;;;;;;;;19.37;60.23;99035.69;4501311;31;33726;-85
2022/06/08 04:14:48;;;;;;;;;;;;;;;19.48;60.24;99047.09;4516892;31;19983;-87
2022/06/08 04:17:13;;;;;;;;;;;;;;;19.66;60.25;99050.09;4502381;31;20002;-86
2022/06/08 04:19:38;;;;;;;;;;;;;;;19.70;60.26;99046.25;4516409;31;20399;-87
2022/06/08 04:22:04;;;;;;;;;;;;;;;19.76;60.25;99051.00;4501591;31;20099;-84
2022/06/08 04:24:29;;;;;;;;;;;;;;;19.86;60.27;99051.09;4502238;31;20002;-85
2022/06/08 04:26:56;;;;;;;;;;;;;;;20.07;60.27;99051.16;4502433;31;20000;-85
2022/06/08 04:29:21;;;;;;;;;;;;;;;20.01;60.27;99049.84;4502395;31;20027;-85
2022/06/08 04:31:46;;;;;;;;;;;;;;;20.20;60.28;99044.75;4516691;31;19976;-85
2022/06/08 04:34:12;;;;;;;;;;;;;;;20.10;60.27;99054.38;4502158;31;19987;-85
2022/06/08 04:36:37;;;;;;;;;;;;;;;20.26;60.28;99048.69;4502161;31;19972;-85
2022/06/08 04:39:03;;;;;;;;;;;;;;;20.53;60.29;99042.91;4489127;31;19975;-85
2022/06/08 04:41:28;;;;;;;;;;;;;;;20.70;60.29;99044.16;4516491;31;19968;-86
2022/06/08 04:43:53;;;;;;;;;;;;;;;20.89;60.31;99038.97;4516404;31;20015;-85
2022/06/08 04:46:19;;;;;;;;;;;;;;;21.05;60.32;99031.34;4516618;31;19972;-86
2022/06/08 04:48:44;;;;;;;;;;;;;;;21.02;60.31;99030.78;4520467;31;20050;-86
2022/06/08 04:51:10;;;;;;;;;;;;;;;21.25;60.34;99016.44;4512675;31;20003;-87
2022/06/08 04:53:36;;;;;;;;;;;;;;;21.27;60.34;99021.59;4488691;31;19991;-85
2022/06/08 04:56:01;;;;;;;;;;;;;;;21.33;60.34;99019.25;4516175;31;20372;-85
2022/06/08 04:58:26;;;;;;;;;;;;;;;21.17;60.32;99029.47;4515895;31;20567;-86
2022/06/08 05:00:53;;;;;;;;;;;;;;;21.25;60.33;99020.88;4515268;31;23790;-85
2022/06/08 05:03:18;;;;;;;;;;;;;;;21.29;60.33;99019.63;4516012;31;20040;-85
2022/06/08 05:05:43;;;;;;;;;;;;;;;21.31;60.33;99015.06;4515874;31;19979;-86
2022/06/08 05:08:08;;;;;;;;;;;;;;;21.52;60.35;99017.59;4515794;31;19972;-85
2022/06/08 05:10:35;;;;;;;;;;;;;;;21.50;60.34;99027.50;4501831;31;19991;-86
2022/06/08 05:13:00;;;;;;;;;;;;;;;21.59;60.35;99030.19;4490375;31;20009;-86
2022/06/08 05:15:28;;;;;;;;;;;;;;;21.80;60.37;99021.31;4490144;31;19976;-86
2022/06/08 05:17:54;;;;;;;;;;;;;;;21.87;60.35;99027.72;4518134;31;20031;-86
2022/06/08 05:20:19;;;;;;;;;;;;;;;22.01;60.37;99029.97;4517944;31;20374;-85
2022/06/08 05:22:44;;;;;;;;;;;;;;;21.83;60.36;99031.63;4503461;31;20019;-83
2022/06/08 05:25:11;;;;;;;;;;;;;;;21.94;60.36;99029.66;4517842;31;19991;-85
2022/06/08 05:27:38;;;;;;;;;;;;;;;21.92;60.37;99038.75;4518033;31;19968;-85
2022/06/08 05:30:03;;;;;;;;;;;;;;;22.01;60.37;99043.22;4503515;31;20002;-86
2022/06/08 05:32:28;;;;;;;;;;;;;;;22.03;60.37;99049.22;4503521;31;20332;-85
2022/06/08 05:34:54;;;;;;;;;;;;;;;21.85;60.36;99048.22;4490121;31;20018;-85
2022/06/08 05:37:19;;;;;;;;;;;;;;;21.94;60.36;99050.88;4517884;31;19988;-85
2022/06/08 05:39:44;;;;;;;;;;;;;;;22.00;60.37;99046.81;4502621;31;28028;-86
2022/06/08 05:42:09;;;;;;;;;;;;;;;22.14;60.38;99057.06;4503602;31;20040;-86
2022/06/08 05:44:35;;;;;;;;;;;;;;;22.14;60.38;99049.09;4517482;31;19972;-86
2022/06/08 05:47:01;;;;;;;;;;;;;;;22.10;60.38;99049.53;4503638;31;19976;-86
2022/06/08 05:49:26;;;;;;;;;;;;;;;22.18;60.38;99053.16;4503116;31;20004;-86
2022/06/08 05:51:51;;;;;;;;;;;;;;;22.43;60.39;99050.91;4503110;31;19999;-86
2022/06/08 05:54:17;;;;;;;;;;;;;;;22.58;60.41;99049.50;4489872;31;20019;-86
2022/06/08 05:56:42;;;;;;;;;;;;;;;22.54;60.40;99059.56;4517813;31;19976;-86
2022/06/08 05:59:07;;;;;;;;;;;;;;;22.51;60.40;99070.44;4502585;31;28581;-86
2022/06/08 06:01:33;;;;;;;;;;;;;;;22.75;60.41;99082.44;4489437;31;25404;-86
2022/06/08 06:04:00;;;;;;;;;;;;;;;22.85;60.41;99084.09;4503404;31;19968;-86
2022/06/08 06:06:26;;;;;;;;;;;;;;;23.01;60.42;99087.97;4503429;31;20028;-86
2022/06/08 06:08:51;;;;;;;;;;;;;;;23.06;60.42;99072.47;4503046;31;19992;-86
2022/06/08 06:11:16;;;;;;;;;;;;;;;22.84;60.41;99078.94;4516999;31;31984;-86
2022/06/08 06:13:41;;;;;;;;;;;;;;;22.92;60.42;99077.22;4517785;31;19976;-86
2022/06/08 06:16:07;;;;;;;;;;;;;;;22.80;60.42;99078.34;4489954;31;20020;-86
2022/06/08 06:18:32;;;;;;;;;;;;;;;22.63;60.40;99081.72;4503089;31;20254;-86
2022/06/08 06:20:57;;;;;;;;;;;;;;;22.63;60.40;99071.13;4503084;31;19983;-85
2022/06/08 06:23:23;;;;;;;;;;;;;;;22.71;60.40;99075.72;4502082;31;20002;-86
2022/06/08 06:25:48;;;;;;;;;;;;;;;22.79;60.40;99060.75;4517752;31;19960;-87
2022/06/08 06:28:14;;;;;;;;;;;;;;;23.00;60.42;99065.06;4502503;31;29650;-87
2022/06/08 06:30:39;;;;;;;;;;;;;;;23.20;60.42;99066.69;4503113;31;20040;-87
2022/06/08 06:33:04;;;;;;;;;;;;;;;23.41;60.44;99064.59;4489934;31;20011;-86
2022/06/08 06:35:30;;;;;;;;;;;;;;;23.44;60.45;99064.34;4503216;31;19976;-87
2022/06/08 06:37:55;;;;;;;;;;;;;;;23.28;60.44;99072.09;4503103;31;19996;-87
2022/06/08 06:40:21;;;;;;;;;;;;;;;23.39;60.44;99066.56;4517797;31;20405;-86
2022/06/08 06:42:46;;;;;;;;;;;;;;;23.26;60.43;99063.44;4503087;31;19976;-87
2022/06/08 06:45:12;;;;;;;;;;;;;;;23.15;60.43;99059.12;4503263;31;19971;-87
2022/06/08 06:47:37;;;;;;;;;;;;;;;23.29;60.44;99057.84;4517544;31;20332;-86
2022/06/08 06:50:03;;;;;;;;;;;;;;;23.28;60.44;99058.81;4503180;31;19992;-86
2022/06/08 06:52:28;;;;;;;;;;;;;;;23.16;60.43;99060.81;4503076;31;19984;-87
2022/06/08 06:54:54;;;;;;;;;;;;;;;23.33;60.43;99051.25;4502280;31;33539;-87
2022/06/08 06:57:19;;;;;;;;;;;;;;;23.55;60.45;99042.88;4516580;31;31326;-87
2022/06/08 06:59:44;;;;;;;;;;;;;;;23.76;60.47;99044.47;4517563;31;20027;-87
2022/06/08 07:02:10;;;;;;;;;;;;;;;23.74;60.46;99030.50;4502187;31;30264;-87
2022/06/08 07:04:36;;;;;;;;;;;;;;;23.98;60.48;99029.91;4489721;31;20520;-87
2022/06/08 07:07:01;;;;;;;;;;;;;;;24.30;60.49;99024.06;4502338;31;34470;-87
2022/06/08 07:09:26;;;;;;;;;;;;;;;24.46;60.50;99009.06;4502442;31;28606;-87
2022/06/08 07:11:52;;;;;;;;;;;;;;;24.70;60.51;99020.88;4489009;31;25619;-87
2022/06/08 07:14:18;;;;;;;;;;;;;;;24.87;60.52;99008.50;4503013;31;20316;-87
2022/06/08 07:16:45;;;;;;;;;;;;;;;25.00;60.52;99001.78;4502835;31;20036;-87
2022/06/08 07:19:11;;;;;;;;;;;;;;;25.18;60.53;99008.84;4502783;31;20006;-86
2022/06/08 07:21:36;;;;;;;;;;;;;;;25.24;60.54;99003.72;4517168;31;19987;-87
2022/06/08 07:24:02;;;;;;;;;;;;;;;25.15;60.54;99006.50;4502769;31;19990;-87
2022/06/08 07:26:28;;;;;;;;;;;;;;;25.32;60.54;98998.44;4502598;31;20333;-87
2022/06/08 07:28:53;;;;;;;;;;;;;;;25.30;60.53;98996.91;4517373;31;20012;-86
2022/06/08 07:31:19;;;;;;;;;;;;;;;25.62;60.57;98998.84;4502780;31;20024;-86
2022/06/08 07:33:45;;;;;;;;;;;;;;;25.56;60.56;98991.50;4516908;31;19983;-86
2022/06/08 07:36:10;;;;;;;;;;;;;;;25.50;60.55;98981.47;4502686;31;19988;-86
2022/06/08 07:38:35;;;;;;;;;;;;;;;25.66;60.56;98981.53;4502639;31;19988;-87
2022/06/08 07:41:00;;;;;;;;;;;;;;;25.82;60.56;98994.09;4488746;31;31919;-86
2022/06/08 07:43:26;;;;;;;;;;;;;;;26.02;60.57;98990.06;4502302;31;19964;-86
2022/06/08 07:45:51;;;;;;;;;;;;;;;26.30;60.58;98986.09;4502797;31;20360;-86
2022/06/08 07:51:00;;;;;;;;;;;;;;;26.61;60.61;98977.41;4517026;31;20044;-87
2022/06/08 07:53:25;;;;;;;;;;;;;;;26.44;60.60;98989.94;4516366;31;29246;-87
2022/06/08 07:55:50;;;;;;;;;;;;;;;26.53;60.60;98982.78;4501882;31;30996;-86
2022/06/08 07:58:16;;;;;;;;;;;;;;;26.78;60.62;98983.56;4501672;31;30125;-86
2022/06/08 08:00:43;;;;;;;;;;;;;;;26.87;60.61;98994.03;4502311;31;19976;-87
2022/06/08 08:03:09;;;;;;;;;;;;;;;26.86;60.61;98992.38;4502668;31;20036;-86
2022/06/08 08:05:34;;;;;;;;;;;;;;;27.35;60.64;98991.38;4502408;31;20002;-87
2022/06/08 08:07:59;;;;;;;;;;;;;;;27.44;60.64;98979.63;4501855;31;23387;-86
2022/06/08 08:10:25;;;;;;;;;;;;;;;27.69;60.66;98983.88;4502295;31;20034;-86
2022/06/08 08:12:51;;;;;;;;;;;;;;;27.79;60.67;98981.78;4488997;31;19980;-86
2022/06/08 08:15:17;;;;;;;;;;;;;;;28.06;60.67;98990.28;4489108;31;19987;-86
2022/06/08 08:17:42;;;;;;;;;;;;;;;28.47;60.69;98973.91;4489078;31;19987;-86
2022/06/08 08:20:08;;;;;;;;;;;;;;;28.73;60.72;98982.34;4502141;31;20248;-86
2022/06/08 08:22:33;;;;;;;;;;;;;;;28.98;60.73;98977.56;4502142;31;19988;-86
2022/06/08 08:24:58;;;;;;;;;;;;;;;29.12;60.73;98973.22;4488175;31;34257;-86
2022/06/08 08:27:23;;;;;;;;;;;;;;;29.31;60.74;98976.12;4501560;31;25854;-86
2022/06/08 08:29:50;;;;;;;;;;;;;;;29.52;60.76;98970.00;4488059;31;31147;-85
2022/06/08 08:32:15;;;;;;;;;;;;;;;29.57;60.75;98966.75;4489023;31;19976;-85
2022/06/08 08:34:40;;;;;;;;;;;;;;;29.80;60.77;98970.09;4515888;31;30878;-85
2022/06/08 08:37:06;;;;;;;;;;;;;;;30.00;60.78;98972.16;4501993;31;20020;-84
2022/06/08 08:39:31;;;;;;;;;;;;;;;29.94;60.78;98976.44;4515876;31;24955;-84
2022/06/08 08:44:50;;;;;;;;;;;;;;;29.92;60.78;98973.13;4504297;31;20377;-83
2022/06/08 08:47:23;;;;;;;;;;;;;;;30.09;60.79;98969.19;4503849;31;20048;-84
2022/06/08 08:50:00;;;;;;;;;;;;;;;30.34;60.80;98961.53;4503883;31;19994;-83
2022/06/08 08:52:28;;;;;;;;;;;;;;;30.65;60.81;98971.91;4518532;31;20051;-83
2022/06/08 08:54:57;;;;;;;;;;;;;;;30.90;60.83;98961.50;4518365;31;20395;-82
2022/06/08 08:57:30;;;;;;;;;;;;;;;30.88;60.82;98963.56;4503632;31;20070;-82
2022/06/08 08:59:56;;;;;;;;;;;;;;;30.74;60.82;98962.66;4503895;31;19990;-83
2022/06/08 09:05:15;;;;;;;;;;;;;;;30.67;60.81;98969.03;4505873;31;19989;-83
2022/06/08 09:07:40;;;;;;;;;;;;;;;30.61;60.81;98969.81;4490748;31;20000;-82
2022/06/08 09:10:07;;;;;;;;;;;;;;;30.69;60.83;98973.16;4502762;31;34615;-82
2022/06/08 09:12:32;;;;;;;;;;;;;;;30.80;60.82;98972.63;4503705;31;20032;-83
2022/06/08 09:15:01;;;;;;;;;;;;;;;30.61;60.81;98975.19;4517581;31;29466;-82
2022/06/08 09:17:32;;;;;;;;;;;;;;;30.62;60.82;98972.31;4518313;31;20031;-82
2022/06/08 09:19:58;;;;;;;;;;;;;;;30.82;60.82;98962.50;4503925;31;20368;-82
2022/06/08 09:22:24;;;;;;;;;;;;;;;31.11;60.85;98960.59;4518115;31;19976;-82
2022/06/08 09:24:53;;;;;;;;;;;;;;;31.11;60.85;98952.53;4518253;31;20300;-82
2022/06/08 09:27:25;;;;;;;;;;;;;;;30.98;60.83;98957.81;4503529;31;19980;-82
2022/06/08 09:30:09;;;;;;;;;;;;;;;30.60;60.81;98949.31;4490197;31;19972;-82
2022/06/08 09:32:38;;;;;;;;;;;;;;;30.36;60.80;98958.66;4518402;31;20365;-82
2022/06/08 09:35:24;;;;;;;;;;;;;;;30.06;60.80;98950.78;4518150;31;20011;-82
2022/06/08 09:37:50;;;;;;;;;;;;;;;29.97;60.80;98938.47;4502922;31;20354;-82
2022/06/08 09:43:19;;;;;;;;;;;;;;;30.32;60.80;98931.38;4518135;31;20016;-82
2022/06/08 09:45:49;;;;;;;;;;;;;;;30.48;60.82;98919.47;4518335;31;19998;-82
2022/06/08 09:51:26;;;;;;;;;;;;;;;30.64;60.82;98907.62;4518090;31;20317;-82
2022/06/08 09:53:55;;;;;;;;;;;;;;;30.93;60.84;98899.28;4518073;31;20336;-82
2022/06/08 09:56:24;;;;;;;;;;;;;;;31.26;60.85;98895.94;4503253;31;19983;-83
2022/06/08 09:58:56;;;;;;;;;;;;;;;31.25;60.86;98897.81;4490098;31;20272;-82
2022/06/08 10:01:30;;;;;;;;;;;;;;;30.93;60.84;98883.16;4503372;31;19990;-82
2022/06/08 10:03:59;;;;;;;;;;;;;;;31.01;60.84;98884.88;4517866;31;19975;-82
2022/06/08 10:06:25;;;;;;;;;;;;;;;31.03;60.84;98890.88;4503459;31;20026;-83
2022/06/08 10:09:08;;;;;;;;;;;;;;;30.99;60.83;98876.97;4517852;31;19991;-83
2022/06/08 10:11:39;;;;;;;;;;;;;;;30.92;60.83;98878.00;4517779;31;20027;-82
2022/06/08 10:14:05;;;;;;;;;;;;;;;30.93;60.84;98872.41;4503480;31;19972;-82
2022/06/08 10:16:31;;;;;;;;;;;;;;;30.98;60.84;98874.50;4517768;31;19992;-82
2022/06/08 10:18:57;;;;;;;;;;;;;;;31.00;60.84;98875.16;4503312;31;19995;-82
2022/06/08 10:21:24;;;;;;;;;;;;;;;30.98;60.84;98871.81;4503053;31;19971;-82
2022/06/08 10:24:06;;;;;;;;;;;;;;;30.88;60.84;98871.38;4503286;31;19968;-82
2022/06/08 10:26:34;;;;;;;;;;;;;;;31.13;60.84;98867.94;4489925;31;20058;-83
2022/06/08 10:29:06;;;;;;;;;;;;;;;31.22;60.85;98859.72;4503106;31;20047;-82
2022/06/08 10:31:53;;;;;;;;;;;;;;;31.44;60.86;98856.66;4503034;31;20011;-83
2022/06/08 10:34:22;;;;;;;;;;;;;;;31.61;60.87;98856.28;4517773;31;19979;-83
2022/06/08 10:36:51;;;;;;;;;;;;;;;31.32;60.87;98857.47;4517582;31;19984;-83
2022/06/08 10:39:17;;;;;;;;;;;;;;;31.29;60.86;98861.41;4503121;31;20010;-83
2022/06/08 10:44:33;;;;;;;;;;;;;;;31.17;60.86;98854.12;4505264;31;19982;-83
2022/06/08 10:47:14;;;;;;;;;;;;;;;31.44;60.87;98848.59;4502883;31;20433;-83
2022/06/08 10:49:39;;;;;;;;;;;;;;;31.42;60.87;98853.34;4517581;31;20047;-83
2022/06/08 10:52:17;;;;;;;;;;;;;;;31.57;60.87;98836.22;4502986;31;20007;-83
2022/06/08 10:54:54;;;;;;;;;;;;;;;31.60;60.87;98830.41;4517787;31;20001;-83
2022/06/08 10:57:42;;;;;;;;;;;;;;;31.25;60.86;98835.13;4517524;31;19980;-83
2022/06/08 11:00:19;;;;;;;;;;;;;;;31.08;60.85;98831.97;4517549;31;19983;-83
2022/06/08 11:02:46;;;;;;;;;;;;;;;31.17;60.86;98829.94;4502754;31;20332;-83
2022/06/08 11:05:18;;;;;;;;;;;;;;;31.37;60.86;98823.56;4502969;31;20031;-83
2022/06/08 11:08:01;;;;;;;;;;;;;;;31.69;60.88;98821.09;4517121;31;20036;-83
2022/06/08 11:10:41;;;;;;;;;;;;;;;31.88;60.90;98827.53;4517413;31;19979;-83
2022/06/08 11:13:25;;;;;;;;;;;;;;;32.07;60.90;98813.22;4517341;31;19971;-83
2022/06/08 11:15:53;;;;;;;;;;;;;;;32.14;60.90;98819.41;4517344;31;20032;-83
2022/06/08 11:18:18;;;;;;;;;;;;;;;32.35;60.92;98815.66;4517472;31;19984;-83
2022/06/08 11:20:55;;;;;;;;;;;;;;;32.43;60.91;98815.47;4502654;31;20028;-83
2022/06/08 11:23:26;;;;;;;;;;;;;;;32.33;60.91;98805.09;4502778;31;19980;-83
2022/06/08 11:25:52;;;;;;;;;;;;;;;32.43;60.91;98804.69;4502817;31;20031;-83
2022/06/08 11:28:27;;;;;;;;;;;;;;;32.52;60.92;98800.69;4517330;31;20355;-83
2022/06/08 11:30:52;;;;;;;;;;;;;;;32.43;60.91;98804.69;4517336;31;20302;-83
2022/06/08 11:33:18;;;;;;;;;;;;;;;32.26;60.91;98800.78;4502893;31;19995;-83
2022/06/08 11:36:02;;;;;;;;;;;;;;;32.29;60.91;98801.19;4503039;31;19988;-83
2022/06/08 11:38:33;;;;;;;;;;;;;;;32.29;60.91;98794.97;4517082;31;19986;-83
2022/06/08 11:41:00;;;;;;;;;;;;;;;32.14;60.91;98791.66;4517176;31;20009;-81
2022/06/08 11:43:31;;;;;;;;;;;;;;;32.13;60.91;98795.41;4502704;31;20007;-81
2022/06/08 11:45:56;;;;;;;;;;;;;;;32.12;60.91;98802.66;4502756;31;19994;-81
2022/06/08 11:48:22;;;;;;;;;;;;;;;32.10;60.90;98804.72;4517074;31;20023;-81
2022/06/08 11:50:55;;;;;;;;;;;;;;;32.15;60.91;98799.53;4502670;31;19992;-81
2022/06/08 11:53:26;;;;;;;;;;;;;;;32.13;60.91;98808.84;4502612;31;20031;-81
2022/06/08 11:56:07;;;;;;;;;;;;;;;32.17;60.90;98815.47;4517190;31;20312;-81
2022/06/08 11:58:32;;;;;;;;;;;;;;;32.18;60.90;98809.03;4516926;31;19999;-81
2022/06/08 12:00:59;;;;;;;;;;;;;;;32.21;60.91;98809.47;4502585;31;19991;-81
2022/06/08 12:03:34;;;;;;;;;;;;;;;32.15;60.91;98807.59;4502509;31;20241;-81
2022/06/08 12:06:19;;;;;;;;;;;;;;;32.00;60.90;98815.94;4517150;31;20024;-80
2022/06/08 12:08:46;;;;;;;;;;;;;;;31.99;60.90;98818.84;4516462;31;19975;-80
2022/06/08 12:11:12;;;;;;;;;;;;;;;31.85;60.89;98825.25;4502475;31;20044;-81
2022/06/08 12:13:37;;;;;;;;;;;;;;;31.11;60.86;98829.69;4502421;31;19976;-80
2022/06/08 12:16:04;;;;;;;;;;;;;;;30.49;60.82;98833.34;4502059;31;20010;-82
2022/06/08 12:18:36;;;;;;;;;;;;;;;29.97;60.81;98831.12;4502333;31;19992;-82
2022/06/08 12:21:01;;;;;;;;;;;;;;;29.85;60.79;98832.72;4516700;31;19984;-82
2022/06/08 12:23:39;;;;;;;;;;;;;;;29.61;60.78;98828.59;4516761;31;19987;-83
2022/06/08 12:26:04;;;;;;;;;;;;;;;29.27;60.77;98834.63;4488925;31;19987;-82
2022/06/08 12:28:30;;;;;;;;;;;;;;;29.14;60.76;98832.66;4488116;31;31023;-82
2022/06/08 12:30:56;;;;;;;;;;;;;;;28.72;60.74;98830.69;4501394;31;31486;-83
2022/06/08 12:33:22;;;;;;;;;;;;;;;28.68;60.75;98830.25;4501996;31;20343;-84
2022/06/08 12:36:06;;;;;;;;;;;;;;;28.81;60.74;98832.22;4502065;31;20032;-83
2022/06/08 12:38:32;;;;;;;;;;;;;;;28.73;60.74;98824.31;4516801;31;20003;-83
2022/06/08 12:41:03;;;;;;;;;;;;;;;28.95;60.76;98825.22;4488908;31;19999;-82
2022/06/08 12:43:42;;;;;;;;;;;;;;;29.13;60.76;98814.91;4501798;31;20479;-83
2022/06/08 12:46:07;;;;;;;;;;;;;;;29.25;60.77;98812.53;4502046;31;19994;-83
2022/06/08 12:48:35;;;;;;;;;;;;;;;29.10;60.76;98814.44;4516404;31;19979;-83
2022/06/08 12:51:02;;;;;;;;;;;;;;;29.20;60.76;98821.16;4516488;31;20412;-83
2022/06/08 12:53:29;;;;;;;;;;;;;;;29.39;60.77;98817.03;4501894;31;19994;-83
2022/06/08 12:55:54;;;;;;;;;;;;;;;29.52;60.78;98817.16;4501872;31;20408;-82
2022/06/08 12:58:20;;;;;;;;;;;;;;;29.55;60.77;98822.13;4501183;31;24153;-82
2022/06/08 13:00:53;;;;;;;;;;;;;;;29.77;60.79;98824.78;4501787;31;20064;-83
2022/06/08 13:03:22;;;;;;;;;;;;;;;29.69;60.78;98835.66;4501957;31;20339;-83
2022/06/08 13:05:47;;;;;;;;;;;;;;;29.51;60.78;98831.59;4501707;31;20352;-83
2022/06/08 13:08:20;;;;;;;;;;;;;;;29.42;60.77;98838.09;4501487;31;19983;-82
2022/06/08 13:10:45;;;;;;;;;;;;;;;29.32;60.77;98824.16;4501975;31;20513;-82
2022/06/08 13:13:15;;;;;;;;;;;;;;;29.62;60.78;98839.12;4501606;31;20393;-82